^^
Grace C. Lehan Memorial Weather Station Historical Data
Daily Summary for January 23, 2021 Units:  Both    English   Metric
Daily Weekly Monthly Yearly
  High: Low: Average:
Temperature: 80.4 °F /  26.9 °C 70.5 °F /  21.4 °C 74.7 °F /  23.7 °C
Dew Point: 73.2 °F /  22.9 °C 68.7 °F /  20.4 °C 70.6 °F /  21.4 °C
Humidity: 95% 75% 88%
Wind Speed: 4.1mph /  6.6km/h - 0.7mph /  1.1km/h
Wind Gust: 16mph /  25.7km/h - -
Wind- - SE
Pressure: 30.01 in /  1016.1 hPa 29.93 in /  1013.4 hPa -
Precipitation: 0.00 in /  0 mm    
 
 
Tabular Data for January 23, 2021
Time Temperature Dew Point Pressure Wind Wind Speed Wind Gust Humidity Rainfall Rate (Hourly) solar
00:09 72 °F /  22.2 °C 69.9 °F /  21.1 °C 30.01in /  1016.1hPa Calm     93% 0.04in /  1.02mm 0 W/m2
00:14 72 °F /  22.2 °C 69.9 °F /  21.1 °C 30.01in /  1016.1hPa Calm     93% 0.04in /  1.02mm 0 W/m2
00:19 72 °F /  22.2 °C 69.9 °F /  21.1 °C 30.01in /  1016.1hPa Calm     93% 0.04in /  1.02mm 0 W/m2
00:24 71.9 °F /  22.2 °C 69.8 °F /  21 °C 30.01in /  1016.1hPa Calm     93% 0.04in /  1.02mm 0 W/m2
00:29 71.9 °F /  22.2 °C 69.8 °F /  21 °C 30.01in /  1016.1hPa Calm     93% 0.04in /  1.02mm 0 W/m2
00:34 71.8 °F /  22.1 °C 69.7 °F /  20.9 °C 30.01in /  1016.1hPa Calm     93% 0.04in /  1.02mm 0 W/m2
00:39 71.8 °F /  22.1 °C 69.7 °F /  20.9 °C 30.01in /  1016.1hPa SSE 0.1mph /  0.2km/h 3mph /  4.8km/h 93% 0.04in /  1.02mm 0 W/m2
00:44 71.7 °F /  22.1 °C 69.6 °F /  20.9 °C 30.01in /  1016.1hPa Calm   3mph /  4.8km/h 93% 0.04in /  1.02mm 0 W/m2
00:49 71.7 °F /  22.1 °C 69.8 °F /  21 °C 30.01in /  1016.1hPa Calm   3mph /  4.8km/h 93.6% 0.04in /  1.02mm 0 W/m2
00:54 71.7 °F /  22.1 °C 69.9 °F /  21.1 °C 30.01in /  1016.1hPa Calm   3mph /  4.8km/h 94% 0.04in /  1.02mm 0 W/m2
00:59 71.6 °F /  22 °C 69.8 °F /  21 °C 30.01in /  1016.1hPa Calm   3mph /  4.8km/h 94% 0.04in /  1.02mm 0 W/m2
01:04 71.6 °F /  22 °C 69.8 °F /  21 °C 30.01in /  1016.1hPa Calm   3mph /  4.8km/h 94% 0.04in /  1.02mm 0 W/m2
01:09 71.5 °F /  21.9 °C 69.7 °F /  20.9 °C 30.01in /  1016.1hPa Calm     94% 0.00in /  0mm 0 W/m2
01:14 71.5 °F /  21.9 °C 69.7 °F /  20.9 °C 30.01in /  1016.1hPa Calm     94% 0.00in /  0mm 0 W/m2
01:19 71.4 °F /  21.9 °C 69.6 °F /  20.9 °C 30.01in /  1016.1hPa Calm     94% 0.00in /  0mm 0 W/m2
01:24 71.4 °F /  21.9 °C 69.4 °F /  20.8 °C 30.01in /  1016.1hPa Calm     93.4% 0.00in /  0mm 0 W/m2
01:29 71.3 °F /  21.8 °C 69.3 °F /  20.7 °C 30.01in /  1016.1hPa Calm     93.4% 0.00in /  0mm 0 W/m2
01:34 71.3 °F /  21.8 °C 69.5 °F /  20.8 °C 30.01in /  1016.1hPa Calm     94% 0.00in /  0mm 0 W/m2
01:39 71.2 °F /  21.8 °C 69.4 °F /  20.8 °C 30.01in /  1016.1hPa Calm     94% 0.00in /  0mm 0 W/m2
01:44 71.2 °F /  21.8 °C 69.4 °F /  20.8 °C 30.01in /  1016.1hPa Calm     94% 0.00in /  0mm 0 W/m2
01:49 71.2 °F /  21.8 °C 69.4 °F /  20.8 °C 30.01in /  1016.1hPa Calm     94% 0.00in /  0mm 0 W/m2
01:54 71.1 °F /  21.7 °C 69.3 °F /  20.7 °C 30.01in /  1016.1hPa Calm   1mph /  1.6km/h 94% 0.00in /  0mm 0 W/m2
01:59 71.1 °F /  21.7 °C 69.3 °F /  20.7 °C 30.01in /  1016.1hPa Calm   1mph /  1.6km/h 94% 0.00in /  0mm 0 W/m2
02:04 71.1 °F /  21.7 °C 69.3 °F /  20.7 °C 30.00in /  1015.8hPa Calm   1mph /  1.6km/h 94% 0.00in /  0mm 0 W/m2
02:09 71.1 °F /  21.7 °C 69.3 °F /  20.7 °C 30.00in /  1015.8hPa Calm     94% 0.00in /  0mm 0 W/m2
02:14 71 °F /  21.7 °C 69.2 °F /  20.7 °C 30.00in /  1015.8hPa Calm     94% 0.00in /  0mm 0 W/m2
02:19 71 °F /  21.7 °C 69.2 °F /  20.7 °C 30.00in /  1015.8hPa Calm     94% 0.00in /  0mm 0 W/m2
02:24 71 °F /  21.7 °C 69.2 °F /  20.7 °C 30.00in /  1015.8hPa Calm     94% 0.00in /  0mm 0 W/m2
02:29 71 °F /  21.7 °C 69.2 °F /  20.7 °C 30.00in /  1015.8hPa Calm     94% 0.00in /  0mm 0 W/m2
02:34 71 °F /  21.7 °C 69.2 °F /  20.7 °C 30.00in /  1015.8hPa Calm     94% 0.00in /  0mm 0 W/m2
02:39 71 °F /  21.7 °C 69.2 °F /  20.7 °C 30.00in /  1015.8hPa Calm     94% 0.00in /  0mm 0 W/m2
02:44 70.9 °F /  21.6 °C 69.1 °F /  20.6 °C 30.00in /  1015.8hPa Calm     94% 0.00in /  0mm 0 W/m2
02:49 70.8 °F /  21.6 °C 69 °F /  20.6 °C 30.00in /  1015.8hPa Calm     94% 0.00in /  0mm 0 W/m2
02:54 70.8 °F /  21.6 °C 69 °F /  20.6 °C 30.00in /  1015.8hPa Calm     94% 0.00in /  0mm 0 W/m2
02:59 70.8 °F /  21.6 °C 69 °F /  20.6 °C 30.00in /  1015.8hPa Calm     94% 0.00in /  0mm 0 W/m2
03:04 70.7 °F /  21.5 °C 68.9 °F /  20.5 °C 30.00in /  1015.8hPa Calm     94% 0.00in /  0mm 0 W/m2
03:09 70.7 °F /  21.5 °C 68.9 °F /  20.5 °C 30.00in /  1015.8hPa Calm     94% 0.00in /  0mm 0 W/m2
03:14 70.6 °F /  21.4 °C 68.8 °F /  20.4 °C 30.00in /  1015.8hPa Calm     94% 0.00in /  0mm 0 W/m2
03:19 70.6 °F /  21.4 °C 68.8 °F /  20.4 °C 29.99in /  1015.5hPa Calm     94% 0.00in /  0mm 0 W/m2
03:24 70.7 °F /  21.5 °C 69 °F /  20.6 °C 29.99in /  1015.5hPa Calm     94.5% 0.00in /  0mm 0 W/m2
03:29 70.7 °F /  21.5 °C 69.2 °F /  20.7 °C 29.99in /  1015.5hPa Calm     95% 0.00in /  0mm 0 W/m2
03:34 70.8 °F /  21.6 °C 69.3 °F /  20.7 °C 29.99in /  1015.5hPa Calm     95% 0.00in /  0mm 0 W/m2
03:39 70.8 °F /  21.6 °C 69.3 °F /  20.7 °C 29.99in /  1015.5hPa Calm     95% 0.00in /  0mm 0 W/m2
03:44 70.8 °F /  21.6 °C 69.3 °F /  20.7 °C 29.98in /  1015.1hPa Calm     95% 0.00in /  0mm 0 W/m2
03:49 70.8 °F /  21.6 °C 69.3 °F /  20.7 °C 29.98in /  1015.1hPa Calm     95% 0.00in /  0mm 0 W/m2
03:54 70.8 °F /  21.6 °C 69.3 °F /  20.7 °C 29.98in /  1015.1hPa Calm   1mph /  1.6km/h 95% 0.00in /  0mm 0 W/m2
03:59 70.9 °F /  21.6 °C 69.4 °F /  20.8 °C 29.98in /  1015.1hPa Calm   1mph /  1.6km/h 95% 0.00in /  0mm 0 W/m2
04:00 70.9 °F /  21.6 °C 69.4 °F /  20.8 °C 29.98in /  1015.1hPa Calm   1mph /  1.6km/h 95% 0.00in /  0mm 0 W/m2
04:09 70.9 °F /  21.6 °C 69.4 °F /  20.8 °C 29.98in /  1015.1hPa Calm     95% 0.00in /  0mm 0 W/m2
04:14 70.9 °F /  21.6 °C 69.4 °F /  20.8 °C 29.98in /  1015.1hPa Calm   1mph /  1.6km/h 95% 0.00in /  0mm 0 W/m2
04:19 71 °F /  21.7 °C 69.5 °F /  20.8 °C 29.98in /  1015.1hPa Calm   1mph /  1.6km/h 95% 0.00in /  0mm 0 W/m2
04:24 71 °F /  21.7 °C 69.5 °F /  20.8 °C 29.98in /  1015.1hPa Calm   1mph /  1.6km/h 95% 0.00in /  0mm 0 W/m2
04:29 71 °F /  21.7 °C 69.5 °F /  20.8 °C 29.98in /  1015.1hPa Calm   1mph /  1.6km/h 95% 0.00in /  0mm 0 W/m2
04:34 71 °F /  21.7 °C 69.5 °F /  20.8 °C 29.98in /  1015.1hPa Calm   1mph /  1.6km/h 95% 0.00in /  0mm 0 W/m2
04:39 71 °F /  21.7 °C 69.5 °F /  20.8 °C 29.98in /  1015.1hPa Calm     95% 0.00in /  0mm 0 W/m2
04:44 70.9 °F /  21.6 °C 69.4 °F /  20.8 °C 29.98in /  1015.1hPa Calm     95% 0.00in /  0mm 0 W/m2
04:49 70.9 °F /  21.6 °C 69.4 °F /  20.8 °C 29.98in /  1015.1hPa Calm     95% 0.00in /  0mm 0 W/m2
04:54 70.9 °F /  21.6 °C 69.4 °F /  20.8 °C 29.98in /  1015.1hPa Calm     95% 0.00in /  0mm 0 W/m2
04:59 70.9 °F /  21.6 °C 69.4 °F /  20.8 °C 29.97in /  1014.8hPa Calm     95% 0.00in /  0mm 0 W/m2
05:04 70.8 °F /  21.6 °C 69.3 °F /  20.7 °C 29.98in /  1015.1hPa SE 0.1mph /  0.2km/h 3mph /  4.8km/h 95% 0.00in /  0mm 0 W/m2
05:09 70.8 °F /  21.6 °C 69.3 °F /  20.7 °C 29.97in /  1014.8hPa Calm   3mph /  4.8km/h 95% 0.00in /  0mm 0 W/m2
05:14 70.8 °F /  21.6 °C 69.2 °F /  20.7 °C 29.97in /  1014.8hPa Calm   3mph /  4.8km/h 94.9% 0.00in /  0mm 0 W/m2
05:19 70.7 °F /  21.5 °C 68.9 °F /  20.5 °C 29.97in /  1014.8hPa Calm   3mph /  4.8km/h 94% 0.00in /  0mm 0 W/m2
05:24 70.7 °F /  21.5 °C 68.9 °F /  20.5 °C 29.97in /  1014.8hPa Calm   3mph /  4.8km/h 94% 0.00in /  0mm 0 W/m2
05:29 70.7 °F /  21.5 °C 68.9 °F /  20.5 °C 29.97in /  1014.8hPa Calm   3mph /  4.8km/h 94% 0.00in /  0mm 0 W/m2
05:34 70.7 °F /  21.5 °C 68.9 °F /  20.5 °C 29.97in /  1014.8hPa Calm   3mph /  4.8km/h 94% 0.00in /  0mm 0 W/m2
05:39 70.6 °F /  21.4 °C 68.8 °F /  20.4 °C 29.97in /  1014.8hPa Calm     94% 0.00in /  0mm 0 W/m2
05:44 70.6 °F /  21.4 °C 68.8 °F /  20.4 °C 29.97in /  1014.8hPa Calm   1mph /  1.6km/h 94% 0.00in /  0mm 0 W/m2
05:49 70.6 °F /  21.4 °C 68.8 °F /  20.4 °C 29.97in /  1014.8hPa Calm   1mph /  1.6km/h 94.2% 0.00in /  0mm 0 W/m2
05:54 70.6 °F /  21.4 °C 68.8 °F /  20.4 °C 29.97in /  1014.8hPa SE 0.1mph /  0.2km/h 1mph /  1.6km/h 94% 0.00in /  0mm 0 W/m2
05:59 70.6 °F /  21.4 °C 68.9 °F /  20.5 °C 29.97in /  1014.8hPa Calm   1mph /  1.6km/h 94.4% 0.00in /  0mm 0 W/m2
06:04 70.6 °F /  21.4 °C 68.9 °F /  20.5 °C 29.97in /  1014.8hPa Calm   1mph /  1.6km/h 94.3% 0.00in /  0mm 0 W/m2
06:09 70.7 °F /  21.5 °C 68.9 °F /  20.5 °C 29.97in /  1014.8hPa Calm     94% 0.00in /  0mm 0 W/m2
06:14 70.7 °F /  21.5 °C 68.9 °F /  20.5 °C 29.97in /  1014.8hPa Calm     94% 0.00in /  0mm 0 W/m2
06:19 70.7 °F /  21.5 °C 68.9 °F /  20.5 °C 29.97in /  1014.8hPa Calm     94% 0.00in /  0mm 0 W/m2
06:24 70.7 °F /  21.5 °C 68.9 °F /  20.5 °C 29.97in /  1014.8hPa Calm     94% 0.00in /  0mm 0 W/m2
06:29 70.6 °F /  21.4 °C 68.8 °F /  20.4 °C 29.97in /  1014.8hPa Calm     94% 0.00in /  0mm 0 W/m2
06:34 70.6 °F /  21.4 °C 68.8 °F /  20.4 °C 29.97in /  1014.8hPa Calm     94% 0.00in /  0mm 0 W/m2
06:39 70.6 °F /  21.4 °C 68.8 °F /  20.4 °C 29.97in /  1014.8hPa Calm     94% 0.00in /  0mm 0 W/m2
06:44 70.6 °F /  21.4 °C 68.8 °F /  20.4 °C 29.97in /  1014.8hPa Calm     94% 0.00in /  0mm 0 W/m2
06:49 70.5 °F /  21.4 °C 68.7 °F /  20.4 °C 29.97in /  1014.8hPa Calm     94% 0.00in /  0mm 5 W/m2
06:54 70.5 °F /  21.4 °C 68.7 °F /  20.4 °C 29.97in /  1014.8hPa Calm   1mph /  1.6km/h 94% 0.00in /  0mm 9 W/m2
06:59 70.6 °F /  21.4 °C 68.8 °F /  20.4 °C 29.97in /  1014.8hPa Calm   1mph /  1.6km/h 94% 0.00in /  0mm 26 W/m2
07:04 70.6 °F /  21.4 °C 68.8 °F /  20.4 °C 29.97in /  1014.8hPa Calm   1mph /  1.6km/h 94.1% 0.00in /  0mm 25 W/m2
07:09 70.7 °F /  21.5 °C 69.2 °F /  20.7 °C 29.97in /  1014.8hPa Calm     95% 0.00in /  0mm 37 W/m2
07:14 70.8 °F /  21.6 °C 69.3 °F /  20.7 °C 29.97in /  1014.8hPa ESE 0.1mph /  0.2km/h 3mph /  4.8km/h 95% 0.00in /  0mm 54 W/m2
07:19 70.9 °F /  21.6 °C 69.4 °F /  20.8 °C 29.97in /  1014.8hPa Calm   3mph /  4.8km/h 95% 0.00in /  0mm 53 W/m2
07:24 71.1 °F /  21.7 °C 69.6 °F /  20.9 °C 29.97in /  1014.8hPa Calm   3mph /  4.8km/h 95% 0.00in /  0mm 53 W/m2
07:29 71.2 °F /  21.8 °C 69.4 °F /  20.8 °C 29.97in /  1014.8hPa SE 0.6mph /  1km/h 7mph /  11.3km/h 94% 0.00in /  0mm 42 W/m2
07:34 71.4 °F /  21.9 °C 69.5 °F /  20.8 °C 29.97in /  1014.8hPa Calm   7mph /  11.3km/h 94% 0.00in /  0mm 51 W/m2
07:39 71.5 °F /  21.9 °C 69.7 °F /  20.9 °C 29.98in /  1015.1hPa ESE 0.1mph /  0.2km/h 2mph /  3.2km/h 94% 0.00in /  0mm 69 W/m2
07:44 71.7 °F /  22.1 °C 69.9 °F /  21.1 °C 29.97in /  1014.8hPa ESE 0.1mph /  0.2km/h 2mph /  3.2km/h 94% 0.00in /  0mm 67 W/m2
07:49 71.9 °F /  22.2 °C 70 °F /  21.1 °C 29.97in /  1014.8hPa Calm   2mph /  3.2km/h 94% 0.00in /  0mm 67 W/m2
07:54 72.1 °F /  22.3 °C 70.2 °F /  21.2 °C 29.97in /  1014.8hPa Calm   2mph /  3.2km/h 94% 0.00in /  0mm 74 W/m2
07:59 72.3 °F /  22.4 °C 70.2 °F /  21.2 °C 29.97in /  1014.8hPa Calm   2mph /  3.2km/h 93.1% 0.00in /  0mm 63 W/m2
08:00 72.4 °F /  22.4 °C 70.3 °F /  21.3 °C 29.97in /  1014.8hPa SE 2mph /  3.2km/h 2mph /  3.2km/h 93% 0.00in /  0mm 58 W/m2
08:09 72.6 °F /  22.6 °C 70.4 °F /  21.3 °C 29.97in /  1014.8hPa SSE 0.1mph /  0.2km/h 2mph /  3.2km/h 92.7% 0.00in /  0mm 91 W/m2
08:14 72.7 °F /  22.6 °C 70.3 °F /  21.3 °C 29.97in /  1014.8hPa Calm   2mph /  3.2km/h 92% 0.00in /  0mm 91 W/m2
08:19 72.8 °F /  22.7 °C 70.4 °F /  21.3 °C 29.97in /  1014.8hPa SE 0.3mph /  0.5km/h 4mph /  6.4km/h 92% 0.00in /  0mm 83 W/m2
08:24 72.9 °F /  22.7 °C 70.5 °F /  21.4 °C 29.97in /  1014.8hPa SSE 0.1mph /  0.2km/h 4mph /  6.4km/h 92% 0.00in /  0mm 125 W/m2
08:29 73.1 °F /  22.8 °C 70.6 °F /  21.4 °C 29.98in /  1015.1hPa ESE 0.1mph /  0.2km/h 4mph /  6.4km/h 92% 0.00in /  0mm 139 W/m2
08:34 73.3 °F /  22.9 °C 70.8 °F /  21.6 °C 29.98in /  1015.1hPa ESE 0.6mph /  1km/h 4mph /  6.4km/h 92% 0.00in /  0mm 149 W/m2
08:39 73.5 °F /  23.1 °C 70.7 °F /  21.5 °C 29.98in /  1015.1hPa ESE 0.3mph /  0.5km/h 4mph /  6.4km/h 91% 0.00in /  0mm 137 W/m2
08:44 73.7 °F /  23.2 °C 71 °F /  21.7 °C 29.98in /  1015.1hPa SE 0.9mph /  1.4km/h 6mph /  9.7km/h 91% 0.00in /  0mm 193 W/m2
08:49 74.1 °F /  23.4 °C 71.3 °F /  21.8 °C 29.98in /  1015.1hPa Calm   6mph /  9.7km/h 91% 0.00in /  0mm 211 W/m2
08:54 74.5 °F /  23.6 °C 71.6 °F /  22 °C 29.98in /  1015.1hPa ESE 0.2mph /  0.3km/h 6mph /  9.7km/h 90.6% 0.00in /  0mm 207 W/m2
08:59 74.8 °F /  23.8 °C 71.5 °F /  21.9 °C 29.98in /  1015.1hPa Calm   6mph /  9.7km/h 89.2% 0.00in /  0mm 360 W/m2
09:04 75.3 °F /  24.1 °C 71.8 °F /  22.1 °C 29.98in /  1015.1hPa SW 0.5mph /  0.8km/h 6mph /  9.7km/h 89% 0.00in /  0mm 469 W/m2
09:09 75.8 °F /  24.3 °C 72.1 °F /  22.3 °C 29.98in /  1015.1hPa SE 0.3mph /  0.5km/h 7mph /  11.3km/h 88.2% 0.00in /  0mm 510 W/m2
09:14 76.4 °F /  24.7 °C 72.2 °F /  22.3 °C 29.98in /  1015.1hPa ESE 1.3mph /  2.1km/h 10mph /  16.1km/h 86.7% 0.00in /  0mm 432 W/m2
09:19 76.9 °F /  24.9 °C 72 °F /  22.2 °C 29.98in /  1015.1hPa SSE 0.8mph /  1.3km/h 10mph /  16.1km/h 85% 0.00in /  0mm 448 W/m2
09:24 77.3 °F /  25.2 °C 72.4 °F /  22.4 °C 29.98in /  1015.1hPa ESE 0.6mph /  1km/h 10mph /  16.1km/h 84.8% 0.00in /  0mm 594 W/m2
09:30 78 °F /  25.6 °C 72.4 °F /  22.4 °C 29.98in /  1015.1hPa ESE 1mph /  1.6km/h 10mph /  16.1km/h 83% 0.00in /  0mm 422 W/m2
10:00 79.2 °F /  26.2 °C 73.2 °F /  22.9 °C 29.98in /  1015.1hPa Calm   9mph /  14.5km/h 82% 0.00in /  0mm 351 W/m2
10:30 80.4 °F /  26.9 °C 72.5 °F /  22.5 °C 29.98in /  1015.1hPa ESE 1mph /  1.6km/h 12mph /  19.3km/h 77% 0.00in /  0mm 513 W/m2
11:00 79.1 °F /  26.2 °C 72 °F /  22.2 °C 29.98in /  1015.1hPa SE 2mph /  3.2km/h 16mph /  25.7km/h 79% 0.00in /  0mm 265 W/m2
11:30 79.1 °F /  26.2 °C 71.3 °F /  21.8 °C 29.97in /  1014.8hPa ESE 1mph /  1.6km/h 13mph /  20.9km/h 77% 0.00in /  0mm 227 W/m2
12:04 79.2 °F /  26.2 °C 71 °F /  21.7 °C 29.97in /  1014.8hPa ESE 0.9mph /  1.4km/h 4mph /  6.4km/h 76% 0.00in /  0mm 102 W/m2
12:09 79.1 °F /  26.2 °C 71.2 °F /  21.8 °C 29.97in /  1014.8hPa ESE 1.3mph /  2.1km/h 7mph /  11.3km/h 76.8% 0.00in /  0mm 329 W/m2
12:14 79 °F /  26.1 °C 71.4 °F /  21.9 °C 29.97in /  1014.8hPa SE 0.7mph /  1.1km/h 7mph /  11.3km/h 77.6% 0.00in /  0mm 250 W/m2
12:19 79 °F /  26.1 °C 71.3 °F /  21.8 °C 29.97in /  1014.8hPa SSW 0.4mph /  0.6km/h 9mph /  14.5km/h 77.3% 0.00in /  0mm 302 W/m2
12:24 79.2 °F /  26.2 °C 71.8 °F /  22.1 °C 29.97in /  1014.8hPa SSE 0.2mph /  0.3km/h 9mph /  14.5km/h 78% 0.00in /  0mm 265 W/m2
12:29 79.6 °F /  26.4 °C 72.2 °F /  22.3 °C 29.97in /  1014.8hPa East 0.3mph /  0.5km/h 9mph /  14.5km/h 78% 0.00in /  0mm 264 W/m2
12:34 80 °F /  26.7 °C 72.1 °F /  22.3 °C 29.96in /  1014.4hPa SSE 0.4mph /  0.6km/h 9mph /  14.5km/h 77% 0.00in /  0mm 264 W/m2
12:39 80.2 °F /  26.8 °C 71.9 °F /  22.2 °C 29.96in /  1014.4hPa ESE 1.1mph /  1.8km/h 13mph /  20.9km/h 75.9% 0.00in /  0mm 281 W/m2
12:44 80 °F /  26.7 °C 71.5 °F /  21.9 °C 29.96in /  1014.4hPa SSE 1.9mph /  3.1km/h 13mph /  20.9km/h 75.2% 0.00in /  0mm 290 W/m2
12:49 79.9 °F /  26.6 °C 71.4 °F /  21.9 °C 29.96in /  1014.4hPa SE 2.3mph /  3.7km/h 13mph /  20.9km/h 75.3% 0.00in /  0mm 271 W/m2
12:54 80 °F /  26.7 °C 71.6 °F /  22 °C 29.96in /  1014.4hPa SE 2.2mph /  3.5km/h 13mph /  20.9km/h 75.4% 0.00in /  0mm 243 W/m2
12:59 80.2 °F /  26.8 °C 71.8 °F /  22.1 °C 29.96in /  1014.4hPa SSE 1.8mph /  2.9km/h 13mph /  20.9km/h 75.6% 0.00in /  0mm 223 W/m2
13:04 80.4 °F /  26.9 °C 71.8 °F /  22.1 °C 29.96in /  1014.4hPa SE 2.7mph /  4.3km/h 13mph /  20.9km/h 75.2% 0.00in /  0mm 214 W/m2
13:09 80.2 °F /  26.8 °C 71.5 °F /  21.9 °C 29.96in /  1014.4hPa SE 2.5mph /  4km/h 12mph /  19.3km/h 75% 0.00in /  0mm 250 W/m2
13:14 80 °F /  26.7 °C 71.7 °F /  22.1 °C 29.95in /  1014.1hPa SE 3mph /  4.8km/h 13mph /  20.9km/h 76% 0.00in /  0mm 318 W/m2
13:19 79.8 °F /  26.6 °C 71.5 °F /  21.9 °C 29.96in /  1014.4hPa SE 2.1mph /  3.4km/h 13mph /  20.9km/h 75.9% 0.00in /  0mm 223 W/m2
13:24 79.5 °F /  26.4 °C 71.3 °F /  21.8 °C 29.95in /  1014.1hPa SE 2.3mph /  3.7km/h 13mph /  20.9km/h 76% 0.00in /  0mm 151 W/m2
13:29 79.3 °F /  26.3 °C 71.4 °F /  21.9 °C 29.95in /  1014.1hPa ESE 1.1mph /  1.8km/h 13mph /  20.9km/h 76.9% 0.00in /  0mm 234 W/m2
13:34 79.1 °F /  26.2 °C 71.1 °F /  21.7 °C 29.95in /  1014.1hPa SE 2mph /  3.2km/h 13mph /  20.9km/h 76.5% 0.00in /  0mm 234 W/m2
13:39 79.2 °F /  26.2 °C 71.4 °F /  21.9 °C 29.95in /  1014.1hPa SE 0.5mph /  0.8km/h 11mph /  17.7km/h 77% 0.00in /  0mm 292 W/m2
13:44 79.3 °F /  26.3 °C 71.5 °F /  21.9 °C 29.95in /  1014.1hPa ESE 0.3mph /  0.5km/h 11mph /  17.7km/h 77% 0.00in /  0mm 218 W/m2
13:49 79.4 °F /  26.3 °C 71.7 °F /  22.1 °C 29.95in /  1014.1hPa SSE 0.6mph /  1km/h 11mph /  17.7km/h 77.2% 0.00in /  0mm 178 W/m2
13:54 79.5 °F /  26.4 °C 71.4 °F /  21.9 °C 29.96in /  1014.4hPa SE 1.8mph /  2.9km/h 11mph /  17.7km/h 76.2% 0.00in /  0mm 251 W/m2
13:59 79.5 °F /  26.4 °C 71.2 °F /  21.8 °C 29.96in /  1014.4hPa SE 2.2mph /  3.5km/h 11mph /  17.7km/h 75.9% 0.00in /  0mm 179 W/m2
14:04 79.3 °F /  26.3 °C 70.8 °F /  21.6 °C 29.96in /  1014.4hPa ESE 1.7mph /  2.7km/h 11mph /  17.7km/h 75.3% 0.00in /  0mm 264 W/m2
14:09 79.3 °F /  26.3 °C 70.8 °F /  21.6 °C 29.96in /  1014.4hPa SSE 2.7mph /  4.3km/h 10mph /  16.1km/h 75.1% 0.00in /  0mm 306 W/m2
14:14 79.6 °F /  26.4 °C 71 °F /  21.7 °C 29.96in /  1014.4hPa SE 1.8mph /  2.9km/h 10mph /  16.1km/h 75% 0.00in /  0mm 265 W/m2
14:19 79.9 °F /  26.6 °C 71.5 °F /  21.9 °C 29.96in /  1014.4hPa ESE 0.6mph /  1km/h 10mph /  16.1km/h 75.5% 0.00in /  0mm 287 W/m2
14:24 80 °F /  26.7 °C 71.4 °F /  21.9 °C 29.95in /  1014.1hPa SE 2.6mph /  4.2km/h 12mph /  19.3km/h 75% 0.00in /  0mm 165 W/m2
14:29 79.9 °F /  26.6 °C 71.2 °F /  21.8 °C 29.96in /  1014.4hPa SE 1mph /  1.6km/h 12mph /  19.3km/h 75% 0.00in /  0mm 234 W/m2
14:34 79.7 °F /  26.5 °C 71.4 °F /  21.9 °C 29.96in /  1014.4hPa SE 1.3mph /  2.1km/h 12mph /  19.3km/h 75.9% 0.00in /  0mm 239 W/m2
14:39 79.7 °F /  26.5 °C 71.3 °F /  21.8 °C 29.95in /  1014.1hPa SE 2.3mph /  3.7km/h 11mph /  17.7km/h 75.6% 0.00in /  0mm 125 W/m2
14:44 79.5 °F /  26.4 °C 71.3 °F /  21.8 °C 29.95in /  1014.1hPa SE 0.8mph /  1.3km/h 11mph /  17.7km/h 76% 0.00in /  0mm 438 W/m2
14:49 79.6 °F /  26.4 °C 71.5 °F /  21.9 °C 29.95in /  1014.1hPa SE 1.5mph /  2.4km/h 11mph /  17.7km/h 76.4% 0.00in /  0mm 392 W/m2
14:54 79.9 °F /  26.6 °C 71.8 °F /  22.1 °C 29.95in /  1014.1hPa ESE 0.7mph /  1.1km/h 11mph /  17.7km/h 76.4% 0.00in /  0mm 214 W/m2
14:59 80 °F /  26.7 °C 71.8 °F /  22.1 °C 29.95in /  1014.1hPa ESE 0.8mph /  1.3km/h 11mph /  17.7km/h 76% 0.00in /  0mm 223 W/m2
15:04 80 °F /  26.7 °C 71.7 °F /  22.1 °C 29.94in /  1013.8hPa ESE 1.4mph /  2.3km/h 11mph /  17.7km/h 76% 0.00in /  0mm 139 W/m2
15:09 79.7 °F /  26.5 °C 71.6 °F /  22 °C 29.94in /  1013.8hPa SSE 0.4mph /  0.6km/h 9mph /  14.5km/h 76.2% 0.00in /  0mm 179 W/m2
15:14 79.5 °F /  26.4 °C 71.5 °F /  21.9 °C 29.94in /  1013.8hPa SSE 0.7mph /  1.1km/h 9mph /  14.5km/h 76.6% 0.00in /  0mm 193 W/m2
15:19 79.5 °F /  26.4 °C 71.6 °F /  22 °C 29.94in /  1013.8hPa SE 0.8mph /  1.3km/h 9mph /  14.5km/h 76.9% 0.00in /  0mm 264 W/m2
15:24 79.6 °F /  26.4 °C 71.8 °F /  22.1 °C 29.93in /  1013.4hPa ESE 0.5mph /  0.8km/h 9mph /  14.5km/h 77% 0.00in /  0mm 251 W/m2
15:29 79.6 °F /  26.4 °C 71.4 °F /  21.9 °C 29.93in /  1013.4hPa ESE 1.2mph /  1.9km/h 10mph /  16.1km/h 76.2% 0.00in /  0mm 91 W/m2
15:34 79.3 °F /  26.3 °C 71.1 °F /  21.7 °C 29.94in /  1013.8hPa ESE 3.4mph /  5.5km/h 14mph /  22.5km/h 76.1% 0.00in /  0mm 76 W/m2
15:39 78.9 °F /  26.1 °C 71.1 °F /  21.7 °C 29.93in /  1013.4hPa SE 1mph /  1.6km/h 14mph /  22.5km/h 77.1% 0.00in /  0mm 62 W/m2
15:44 78.7 °F /  25.9 °C 71.2 °F /  21.8 °C 29.93in /  1013.4hPa ESE 0.7mph /  1.1km/h 14mph /  22.5km/h 78.1% 0.00in /  0mm 93 W/m2
15:49 78.5 °F /  25.8 °C 71.4 °F /  21.9 °C 29.93in /  1013.4hPa ESE 2mph /  3.2km/h 14mph /  22.5km/h 79% 0.00in /  0mm 77 W/m2
15:54 78.3 °F /  25.7 °C 71.2 °F /  21.8 °C 29.93in /  1013.4hPa SE 2.9mph /  4.7km/h 14mph /  22.5km/h 79% 0.00in /  0mm 76 W/m2
15:59 78.1 °F /  25.6 °C 71.1 °F /  21.7 °C 29.93in /  1013.4hPa SSE 0.8mph /  1.3km/h 14mph /  22.5km/h 79.3% 0.00in /  0mm 90 W/m2
16:09 77.9 °F /  25.5 °C 71.3 °F /  21.8 °C 29.93in /  1013.4hPa SE 0.7mph /  1.1km/h 4mph /  6.4km/h 80.1% 0.00in /  0mm 95 W/m2
16:14 77.8 °F /  25.4 °C 71.4 °F /  21.9 °C 29.93in /  1013.4hPa SE 1.7mph /  2.7km/h 12mph /  19.3km/h 80.7% 0.00in /  0mm 100 W/m2
16:19 77.8 °F /  25.4 °C 71.3 °F /  21.8 °C 29.93in /  1013.4hPa ESE 1.9mph /  3.1km/h 12mph /  19.3km/h 80.7% 0.00in /  0mm 107 W/m2
16:24 77.7 °F /  25.4 °C 71.4 °F /  21.9 °C 29.93in /  1013.4hPa SE 1mph /  1.6km/h 12mph /  19.3km/h 81% 0.00in /  0mm 113 W/m2
16:29 77.7 °F /  25.4 °C 71.4 °F /  21.9 °C 29.93in /  1013.4hPa SE 1.2mph /  1.9km/h 12mph /  19.3km/h 81% 0.00in /  0mm 125 W/m2
16:34 77.7 °F /  25.4 °C 71.4 °F /  21.9 °C 29.93in /  1013.4hPa SE 1.9mph /  3.1km/h 12mph /  19.3km/h 81% 0.00in /  0mm 121 W/m2
16:39 77.7 °F /  25.4 °C 71.3 °F /  21.8 °C 29.93in /  1013.4hPa SSE 1.6mph /  2.6km/h 7mph /  11.3km/h 80.8% 0.00in /  0mm 109 W/m2
16:44 77.6 °F /  25.3 °C 71.3 °F /  21.8 °C 29.93in /  1013.4hPa SSE 0.9mph /  1.4km/h 7mph /  11.3km/h 81% 0.00in /  0mm 127 W/m2
16:49 77.6 °F /  25.3 °C 71.3 °F /  21.8 °C 29.93in /  1013.4hPa SSE 1.1mph /  1.8km/h 7mph /  11.3km/h 81% 0.00in /  0mm 111 W/m2
16:54 77.6 °F /  25.3 °C 71.3 °F /  21.8 °C 29.93in /  1013.4hPa SE 2.8mph /  4.5km/h 10mph /  16.1km/h 81% 0.00in /  0mm 98 W/m2
16:59 77.6 °F /  25.3 °C 71.3 °F /  21.8 °C 29.94in /  1013.8hPa SE 2.6mph /  4.2km/h 11mph /  17.7km/h 81% 0.00in /  0mm 93 W/m2
17:04 77.5 °F /  25.3 °C 71.2 °F /  21.8 °C 29.94in /  1013.8hPa South 1.3mph /  2.1km/h 13mph /  20.9km/h 81% 0.00in /  0mm 90 W/m2
17:09 77.5 °F /  25.3 °C 71.5 °F /  21.9 °C 29.94in /  1013.8hPa Calm   13mph /  20.9km/h 81.9% 0.00in /  0mm 62 W/m2
17:14 77.4 °F /  25.2 °C 71.3 °F /  21.8 °C 29.94in /  1013.8hPa ESE 0.7mph /  1.1km/h 13mph /  20.9km/h 81.6% 0.00in /  0mm 49 W/m2
17:19 77.3 °F /  25.2 °C 71.4 °F /  21.9 °C 29.94in /  1013.8hPa SE 0.2mph /  0.3km/h 13mph /  20.9km/h 82% 0.00in /  0mm 26 W/m2
17:24 77.2 °F /  25.1 °C 71.3 °F /  21.8 °C 29.94in /  1013.8hPa ESE 0.4mph /  0.6km/h 13mph /  20.9km/h 82% 0.00in /  0mm 33 W/m2
17:29 77.1 °F /  25.1 °C 71.2 °F /  21.8 °C 29.94in /  1013.8hPa SE 0.5mph /  0.8km/h 13mph /  20.9km/h 82% 0.00in /  0mm 26 W/m2
17:34 76.9 °F /  24.9 °C 71 °F /  21.7 °C 29.94in /  1013.8hPa ESE 1.3mph /  2.1km/h 13mph /  20.9km/h 82% 0.00in /  0mm 21 W/m2
17:39 76.8 °F /  24.9 °C 71.2 °F /  21.8 °C 29.94in /  1013.8hPa SE 1.7mph /  2.7km/h 11mph /  17.7km/h 82.8% 0.00in /  0mm 19 W/m2
17:44 76.6 °F /  24.8 °C 71.1 °F /  21.7 °C 29.94in /  1013.8hPa ESE 2mph /  3.2km/h 12mph /  19.3km/h 83% 0.00in /  0mm 21 W/m2
17:49 76.4 °F /  24.7 °C 70.9 °F /  21.6 °C 29.95in /  1014.1hPa SE 1.7mph /  2.7km/h 12mph /  19.3km/h 83.1% 0.00in /  0mm 21 W/m2
17:54 76.3 °F /  24.6 °C 71.1 °F /  21.7 °C 29.95in /  1014.1hPa SE 0.7mph /  1.1km/h 12mph /  19.3km/h 84% 0.00in /  0mm 19 W/m2
17:58 76.2 °F /  24.6 °C 71 °F /  21.7 °C 29.95in /  1014.1hPa SSE 0.7mph /  1.1km/h 12mph /  19.3km/h 84% 0.00in /  0mm 16 W/m2
18:04 76.1 °F /  24.5 °C 70.9 °F /  21.6 °C 29.95in /  1014.1hPa SE 1.1mph /  1.8km/h 12mph /  19.3km/h 84% 0.00in /  0mm 12 W/m2
18:09 76.1 °F /  24.5 °C 70.9 °F /  21.6 °C 29.95in /  1014.1hPa SSE 1.6mph /  2.6km/h 7mph /  11.3km/h 84% 0.00in /  0mm 9 W/m2
18:14 75.9 °F /  24.4 °C 70.8 °F /  21.6 °C 29.96in /  1014.4hPa SE 2.3mph /  3.7km/h 10mph /  16.1km/h 84% 0.00in /  0mm 7 W/m2
18:19 75.8 °F /  24.3 °C 70.7 °F /  21.5 °C 29.96in /  1014.4hPa SE 1.4mph /  2.3km/h 11mph /  17.7km/h 84% 0.00in /  0mm 5 W/m2
18:24 75.8 °F /  24.3 °C 70.9 °F /  21.6 °C 29.96in /  1014.4hPa SE 2.2mph /  3.5km/h 12mph /  19.3km/h 85% 0.00in /  0mm 5 W/m2
18:29 75.7 °F /  24.3 °C 70.9 °F /  21.6 °C 29.96in /  1014.4hPa ESE 1.1mph /  1.8km/h 12mph /  19.3km/h 85% 0.00in /  0mm 0 W/m2
18:34 75.6 °F /  24.2 °C 70.8 °F /  21.6 °C 29.96in /  1014.4hPa SE 0.7mph /  1.1km/h 12mph /  19.3km/h 85% 0.00in /  0mm 0 W/m2
18:39 75.6 °F /  24.2 °C 70.8 °F /  21.6 °C 29.96in /  1014.4hPa ESE 1mph /  1.6km/h 8mph /  12.9km/h 85.2% 0.00in /  0mm 0 W/m2
18:44 75.5 °F /  24.2 °C 71 °F /  21.7 °C 29.95in /  1014.1hPa SE 2.2mph /  3.5km/h 12mph /  19.3km/h 86% 0.00in /  0mm 0 W/m2
18:49 75.4 °F /  24.1 °C 70.9 °F /  21.6 °C 29.95in /  1014.1hPa SE 4.1mph /  6.6km/h 12mph /  19.3km/h 86% 0.00in /  0mm 0 W/m2
18:54 75.3 °F /  24.1 °C 70.8 °F /  21.6 °C 29.95in /  1014.1hPa ESE 0.6mph /  1km/h 12mph /  19.3km/h 86% 0.00in /  0mm 0 W/m2
18:59 75.2 °F /  24 °C 70.8 °F /  21.6 °C 29.95in /  1014.1hPa SSE 0.4mph /  0.6km/h 12mph /  19.3km/h 86.2% 0.00in /  0mm 0 W/m2
19:04 75.2 °F /  24 °C 71 °F /  21.7 °C 29.95in /  1014.1hPa SE 0.4mph /  0.6km/h 12mph /  19.3km/h 87% 0.00in /  0mm 0 W/m2
19:09 75.1 °F /  23.9 °C 71 °F /  21.7 °C 29.95in /  1014.1hPa SE 0.4mph /  0.6km/h 5mph /  8km/h 87% 0.00in /  0mm 0 W/m2
19:14 75.1 °F /  23.9 °C 71 °F /  21.7 °C 29.95in /  1014.1hPa ESE 1.2mph /  1.9km/h 9mph /  14.5km/h 87% 0.00in /  0mm 0 W/m2
19:19 75.1 °F /  23.9 °C 71 °F /  21.7 °C 29.95in /  1014.1hPa ESE 0.8mph /  1.3km/h 9mph /  14.5km/h 87% 0.00in /  0mm 0 W/m2
19:24 75.1 °F /  23.9 °C 71.1 °F /  21.7 °C 29.95in /  1014.1hPa SE 1.3mph /  2.1km/h 9mph /  14.5km/h 87.3% 0.00in /  0mm 0 W/m2
19:29 75 °F /  23.9 °C 71.2 °F /  21.8 °C 29.95in /  1014.1hPa SE 1mph /  1.6km/h 9mph /  14.5km/h 88% 0.00in /  0mm 0 W/m2
19:34 75 °F /  23.9 °C 71.2 °F /  21.8 °C 29.95in /  1014.1hPa SSE 0.7mph /  1.1km/h 11mph /  17.7km/h 88% 0.00in /  0mm 0 W/m2
19:39 75 °F /  23.9 °C 71.2 °F /  21.8 °C 29.95in /  1014.1hPa SE 0.7mph /  1.1km/h 11mph /  17.7km/h 88% 0.00in /  0mm 0 W/m2
19:44 75 °F /  23.9 °C 71.2 °F /  21.8 °C 29.95in /  1014.1hPa ESE 0.9mph /  1.4km/h 11mph /  17.7km/h 88% 0.00in /  0mm 0 W/m2
19:49 75 °F /  23.9 °C 71.2 °F /  21.8 °C 29.94in /  1013.8hPa SE 0.5mph /  0.8km/h 11mph /  17.7km/h 88% 0.00in /  0mm 0 W/m2
19:54 75 °F /  23.9 °C 71.2 °F /  21.8 °C 29.94in /  1013.8hPa ESE 0.6mph /  1km/h 11mph /  17.7km/h 88% 0.00in /  0mm 0 W/m2
19:59 74.9 °F /  23.8 °C 71.1 °F /  21.7 °C 29.94in /  1013.8hPa SSW 0.5mph /  0.8km/h 11mph /  17.7km/h 88% 0.00in /  0mm 0 W/m2
20:00 74.9 °F /  23.8 °C 71.1 °F /  21.7 °C 29.94in /  1013.8hPa Calm   11mph /  17.7km/h 88% 0.00in /  0mm 0 W/m2
20:09 74.9 °F /  23.8 °C 71.1 °F /  21.7 °C 29.94in /  1013.8hPa SE 1.4mph /  2.3km/h 6mph /  9.7km/h 88% 0.00in /  0mm 0 W/m2
20:14 74.9 °F /  23.8 °C 71.1 °F /  21.7 °C 29.94in /  1013.8hPa South 0.8mph /  1.3km/h 6mph /  9.7km/h 88% 0.00in /  0mm 0 W/m2
20:19 74.9 °F /  23.8 °C 71.1 °F /  21.7 °C 29.94in /  1013.8hPa South 0.6mph /  1km/h 6mph /  9.7km/h 88% 0.00in /  0mm 0 W/m2
20:24 74.9 °F /  23.8 °C 71.2 °F /  21.8 °C 29.94in /  1013.8hPa SSE 0.2mph /  0.3km/h 6mph /  9.7km/h 88% 0.00in /  0mm 0 W/m2
20:29 75 °F /  23.9 °C 71.3 °F /  21.8 °C 29.94in /  1013.8hPa SSE 0.9mph /  1.4km/h 6mph /  9.7km/h 88.2% 0.00in /  0mm 0 W/m2
20:34 75 °F /  23.9 °C 71.4 °F /  21.9 °C 29.94in /  1013.8hPa SE 0.7mph /  1.1km/h 9mph /  14.5km/h 88.7% 0.00in /  0mm 0 W/m2
20:39 75.1 °F /  23.9 °C 71.6 °F /  22 °C 29.94in /  1013.8hPa SSE 1.3mph /  2.1km/h 9mph /  14.5km/h 89% 0.00in /  0mm 0 W/m2
20:44 75.1 °F /  23.9 °C 71.6 °F /  22 °C 29.94in /  1013.8hPa SE 1.4mph /  2.3km/h 10mph /  16.1km/h 89% 0.00in /  0mm 0 W/m2
20:49 75.1 °F /  23.9 °C 71.6 °F /  22 °C 29.94in /  1013.8hPa SE 1.5mph /  2.4km/h 10mph /  16.1km/h 88.9% 0.00in /  0mm 0 W/m2
20:54 75.2 °F /  24 °C 71.5 °F /  21.9 °C 29.95in /  1014.1hPa SSE 1.5mph /  2.4km/h 10mph /  16.1km/h 88.3% 0.00in /  0mm 0 W/m2
20:59 75.2 °F /  24 °C 71.4 °F /  21.9 °C 29.95in /  1014.1hPa ESE 0.7mph /  1.1km/h 10mph /  16.1km/h 88% 0.00in /  0mm 0 W/m2
21:04 75.2 °F /  24 °C 71.4 °F /  21.9 °C 29.95in /  1014.1hPa SE 1.4mph /  2.3km/h 10mph /  16.1km/h 88% 0.00in /  0mm 0 W/m2
21:09 75.2 °F /  24 °C 71.4 °F /  21.9 °C 29.95in /  1014.1hPa SE 0.5mph /  0.8km/h 10mph /  16.1km/h 88% 0.00in /  0mm 0 W/m2
21:14 75.3 °F /  24.1 °C 71.5 °F /  21.9 °C 29.95in /  1014.1hPa SE 1.6mph /  2.6km/h 10mph /  16.1km/h 88% 0.00in /  0mm 0 W/m2
21:19 75.3 °F /  24.1 °C 71.5 °F /  21.9 °C 29.95in /  1014.1hPa ESE 0.8mph /  1.3km/h 10mph /  16.1km/h 88% 0.00in /  0mm 0 W/m2
21:24 75.3 °F /  24.1 °C 71.5 °F /  21.9 °C 29.95in /  1014.1hPa ESE 0.8mph /  1.3km/h 10mph /  16.1km/h 88% 0.00in /  0mm 0 W/m2
21:29 75.3 °F /  24.1 °C 71.5 °F /  21.9 °C 29.95in /  1014.1hPa SE 1.5mph /  2.4km/h 10mph /  16.1km/h 88% 0.00in /  0mm 0 W/m2
21:34 75.3 °F /  24.1 °C 71.5 °F /  21.9 °C 29.95in /  1014.1hPa SE 1.1mph /  1.8km/h 10mph /  16.1km/h 88% 0.00in /  0mm 0 W/m2
21:39 75.3 °F /  24.1 °C 71.5 °F /  21.9 °C 29.95in /  1014.1hPa Calm   6mph /  9.7km/h 88% 0.00in /  0mm 0 W/m2
21:44 75.3 °F /  24.1 °C 71.5 °F /  21.9 °C 29.95in /  1014.1hPa Calm   6mph /  9.7km/h 88% 0.00in /  0mm 0 W/m2
21:49 75.3 °F /  24.1 °C 71.6 °F /  22 °C 29.95in /  1014.1hPa ESE 0.3mph /  0.5km/h 6mph /  9.7km/h 88.2% 0.00in /  0mm 0 W/m2
21:54 75.3 °F /  24.1 °C 71.6 °F /  22 °C 29.95in /  1014.1hPa ESE 0.5mph /  0.8km/h 6mph /  9.7km/h 88.5% 0.00in /  0mm 0 W/m2
21:59 75.2 °F /  24 °C 71.8 °F /  22.1 °C 29.95in /  1014.1hPa ESE 0.6mph /  1km/h 6mph /  9.7km/h 89% 0.00in /  0mm 0 W/m2
22:04 75.2 °F /  24 °C 71.8 °F /  22.1 °C 29.95in /  1014.1hPa ESE 0.6mph /  1km/h 7mph /  11.3km/h 89% 0.00in /  0mm 0 W/m2
22:09 75.2 °F /  24 °C 71.7 °F /  22.1 °C 29.95in /  1014.1hPa SE 1.8mph /  2.9km/h 11mph /  17.7km/h 89% 0.00in /  0mm 0 W/m2
22:14 75.2 °F /  24 °C 71.7 °F /  22.1 °C 29.94in /  1013.8hPa ESE 0.2mph /  0.3km/h 11mph /  17.7km/h 89% 0.00in /  0mm 0 W/m2
22:19 75.2 °F /  24 °C 71.7 °F /  22.1 °C 29.94in /  1013.8hPa SSE 0.2mph /  0.3km/h 11mph /  17.7km/h 89% 0.00in /  0mm 0 W/m2
22:24 75.1 °F /  23.9 °C 71.6 °F /  22 °C 29.94in /  1013.8hPa SSE 0.7mph /  1.1km/h 11mph /  17.7km/h 89% 0.00in /  0mm 0 W/m2
22:29 75.1 °F /  23.9 °C 71.6 °F /  22 °C 29.94in /  1013.8hPa ESE 0.6mph /  1km/h 11mph /  17.7km/h 89% 0.00in /  0mm 0 W/m2
22:34 75.1 °F /  23.9 °C 71.6 °F /  22 °C 29.94in /  1013.8hPa SSE 0.9mph /  1.4km/h 11mph /  17.7km/h 89% 0.00in /  0mm 0 W/m2
22:39 75.1 °F /  23.9 °C 71.6 °F /  22 °C 29.94in /  1013.8hPa ESE 1.4mph /  2.3km/h 13mph /  20.9km/h 89% 0.00in /  0mm 0 W/m2
22:44 75.1 °F /  23.9 °C 71.6 °F /  22 °C 29.94in /  1013.8hPa SE 1.1mph /  1.8km/h 13mph /  20.9km/h 89% 0.00in /  0mm 0 W/m2
22:49 75.1 °F /  23.9 °C 71.6 °F /  22 °C 29.94in /  1013.8hPa SE 1.2mph /  1.9km/h 13mph /  20.9km/h 89% 0.00in /  0mm 0 W/m2
22:54 75.1 °F /  23.9 °C 71.7 °F /  22.1 °C 29.94in /  1013.8hPa SE 1mph /  1.6km/h 13mph /  20.9km/h 89% 0.00in /  0mm 0 W/m2
22:59 75.2 °F /  24 °C 71.7 °F /  22.1 °C 29.94in /  1013.8hPa SE 1mph /  1.6km/h 13mph /  20.9km/h 89% 0.00in /  0mm 0 W/m2
23:04 75.1 °F /  23.9 °C 71.7 °F /  22.1 °C 29.94in /  1013.8hPa SE 0.9mph /  1.4km/h 13mph /  20.9km/h 89% 0.00in /  0mm 0 W/m2
23:09 75.1 °F /  23.9 °C 71.6 °F /  22 °C 29.94in /  1013.8hPa ESE 1.2mph /  1.9km/h 13mph /  20.9km/h 89% 0.00in /  0mm 0 W/m2
23:14 75.1 °F /  23.9 °C 71.6 °F /  22 °C 29.94in /  1013.8hPa ESE 1.2mph /  1.9km/h 13mph /  20.9km/h 89% 0.00in /  0mm 0 W/m2
23:19 75.1 °F /  23.9 °C 71.6 °F /  22 °C 29.94in /  1013.8hPa Calm   13mph /  20.9km/h 89% 0.00in /  0mm 0 W/m2
23:24 75.1 °F /  23.9 °C 71.6 °F /  22 °C 29.93in /  1013.4hPa SE 1.3mph /  2.1km/h 13mph /  20.9km/h 89% 0.00in /  0mm 0 W/m2
23:29 75.1 °F /  23.9 °C 71.6 °F /  22 °C 29.93in /  1013.4hPa SE 1mph /  1.6km/h 13mph /  20.9km/h 89% 0.00in /  0mm 0 W/m2
23:34 75.1 °F /  23.9 °C 71.6 °F /  22 °C 29.93in /  1013.4hPa SSE 0.6mph /  1km/h 13mph /  20.9km/h 89% 0.00in /  0mm 0 W/m2
23:39 75.1 °F /  23.9 °C 71.6 °F /  22 °C 29.93in /  1013.4hPa SE 1.6mph /  2.6km/h 5mph /  8km/h 89% 0.00in /  0mm 0 W/m2
23:44 75.1 °F /  23.9 °C 71.6 °F /  22 °C 29.93in /  1013.4hPa SE 1.4mph /  2.3km/h 7mph /  11.3km/h 89% 0.00in /  0mm 0 W/m2
23:49 75.1 °F /  23.9 °C 71.7 °F /  22.1 °C 29.93in /  1013.4hPa SE 0.6mph /  1km/h 7mph /  11.3km/h 89% 0.00in /  0mm 0 W/m2
23:54 75.1 °F /  23.9 °C 71.7 °F /  22.1 °C 29.93in /  1013.4hPa SE 0.7mph /  1.1km/h 7mph /  11.3km/h 89% 0.00in /  0mm 0 W/m2
23:59 75.1 °F /  23.9 °C 71.7 °F /  22.1 °C 29.93in /  1013.4hPa SE 1.6mph /  2.6km/h 7mph /  11.3km/h 89% 0.00in /  0mm 0 W/m2
Hartford County Weather
Compliments of Weather Underground - 2 mb